X  Sluiten METAR luchtvaart weer gegevens      EDDM Munich Airport
Temperatuur
16°C Temperatuur
11°C Dauwpunt
72% Vochtigheid



Wind
11 KM/U
7 MPH
3 M/S
6 KTS



300°
WNW
Huidig weer

Wat bewolking Wat bewolking
Luchtdruk 1010.92 (hPa) - 29.85 (inHg)
Zicht 6.2 (mijl) - 10 (km)
Vliegveld
Vliegveld code EDDM

Locatie : Munich Airport
Afstand: 73 (km)

Metar:
EDDM 251320Z AUTO 30006KT 9999 FEW023 16/11 Q1011 NOSIG

Tijd: 25-09-2022 15:20 CEST